Terminal Aerodrome Forecast
Issued by NWS

Current Version | Previous Version | Text Only | Print | Product List | Glossary On
Versions: 1 2 3 4 5 6 7 8 9 10 11 12 13 14 15 16 17 18
000
FTAK31 PAJN 232325
TAFAPG
TAF
PAPG 232325Z 2400/2424 11008KT P6SM -SHRA SCT025 BKN040 BKN070
     FM240400 00000KT P6SM BKN050
     FM241300 00000KT 4SM BR BKN035 OVC050
     FM241700 VRB03KT P6SM OVC050
      AMD LTD TO CLD VIS AND WIND 2406/2415=

USA.gov is the U.S. government's official web portal to all federal, state and local government web resources and services.